Time;durP1;ratioP1;P1;durP2;ratioP2;P2;SDS_P1;SDS_P2;PMS_P1;PMS_P2;Temp;Humidity;BMP_temperature;BMP_pressure;BME280_temperature;BME280_humidity;BME280_pressure;Samples;Min_cycle;Max_cycle;Signal;HPM_P1;HPM_P2
2022/01/28 00:00:40;;;;;;;11.73;3.75;;;;;;;;;;5102144;27;20558;-81
2022/01/28 00:03:09;;;;;;;7.40;3.08;;;;;;;;;;5118575;28;20227;-80
2022/01/28 00:05:37;;;;;;;13.82;3.28;;;;;;;;;;5112585;28;20297;-82
2022/01/28 00:08:06;;;;;;;18.75;3.65;;;;;;;;;;5104923;28;20556;-83
2022/01/28 00:10:34;;;;;;;10.82;3.15;;;;;;;;;;5111924;28;20195;-83
2022/01/28 00:15:54;;;;;;;12.88;3.58;;;;;;;;;;5114464;28;20899;-84
2022/01/28 00:37:24;;;;;;;6.28;2.95;;;;;;;;;;5094250;28;20192;-80
2022/01/28 00:39:53;;;;;;;9.07;2.75;;;;;;;;;;5106029;27;20711;-82
2022/01/28 00:42:20;;;;;;;9.23;3.38;;;;;;;;;;5121922;27;20217;-79
2022/01/28 00:44:47;;;;;;;7.20;2.53;;;;;;;;;;5120028;27;20224;-81
2022/01/28 00:47:14;;;;;;;9.95;3.15;;;;;;;;;;5103917;28;20654;-82
2022/01/28 00:49:41;;;;;;;15.50;3.38;;;;;;;;;;5096009;28;20815;-79
2022/01/28 00:52:08;;;;;;;11.18;2.60;;;;;;;;;;5111435;28;20188;-79
2022/01/28 00:54:36;;;;;;;6.75;2.40;;;;;;;;;;5113304;28;20218;-82
2022/01/28 00:57:07;;;;;;;4.70;2.10;;;;;;;;;;5110795;28;20203;-82
2022/01/28 00:59:34;;;;;;;9.52;2.45;;;;;;;;;;5116504;28;20662;-82
2022/01/28 01:02:02;;;;;;;13.02;2.60;;;;;;;;;;5114264;28;20299;-83
2022/01/28 01:04:29;;;;;;;13.02;3.28;;;;;;;;;;5121273;27;20572;-81
2022/01/28 01:06:56;;;;;;;13.50;3.42;;;;;;;;;;5122368;27;20205;-82
2022/01/28 01:09:23;;;;;;;7.63;3.13;;;;;;;;;;5120587;27;20212;-83
2022/01/28 01:11:50;;;;;;;5.55;2.47;;;;;;;;;;5108869;28;20189;-82
2022/01/28 01:14:19;;;;;;;8.93;2.83;;;;;;;;;;5114159;28;20225;-80
2022/01/28 01:17:00;;;;;;;8.25;2.40;;;;;;;;;;5113529;28;20668;-84
2022/01/28 01:19:32;;;;;;;10.48;3.05;;;;;;;;;;5110675;28;20249;-81
2022/01/28 01:22:00;;;;;;;10.77;3.28;;;;;;;;;;5113655;28;20751;-80
2022/01/28 01:24:35;;;;;;;8.90;2.50;;;;;;;;;;5116048;27;20252;-85
2022/01/28 01:27:02;;;;;;;14.20;3.25;;;;;;;;;;5120793;27;20679;-83
2022/01/28 01:29:30;;;;;;;10.90;2.83;;;;;;;;;;5116421;27;20216;-81
2022/01/28 01:32:02;;;;;;;14.73;3.55;;;;;;;;;;5113023;28;20603;-81
2022/01/28 01:34:30;;;;;;;8.68;3.00;;;;;;;;;;5112597;28;20617;-83
2022/01/28 01:36:57;;;;;;;10.38;3.03;;;;;;;;;;5112354;28;20283;-82
2022/01/28 01:39:28;;;;;;;8.27;2.60;;;;;;;;;;5111588;28;20199;-81
2022/01/28 01:41:59;;;;;;;11.15;3.20;;;;;;;;;;5113768;28;20693;-81
2022/01/28 01:44:36;;;;;;;8.20;2.67;;;;;;;;;;5116832;27;20594;-82
2022/01/28 01:52:01;;;;;;;9.30;2.70;;;;;;;;;;5122421;27;20645;-81
2022/01/28 01:52:44;;;;;;;5.88;2.30;;;;;;;;;;5109139;27;20229;-82
2022/01/28 01:55:11;;;;;;;8.82;2.53;;;;;;;;;;5093095;28;20245;-79
2022/01/28 01:57:39;;;;;;;4.82;1.98;;;;;;;;;;5092979;28;20546;-80
2022/01/28 02:00:07;;;;;;;7.88;2.70;;;;;;;;;;5108740;27;20211;-82
2022/01/28 02:02:36;;;;;;;10.10;2.80;;;;;;;;;;5114481;27;20570;-80
2022/01/28 02:05:03;;;;;;;11.40;2.60;;;;;;;;;;5128078;27;20219;-80
2022/01/28 02:07:30;;;;;;;11.50;2.78;;;;;;;;;;5107586;27;20472;-80
2022/01/28 02:09:58;;;;;;;8.27;2.70;;;;;;;;;;5112598;28;20200;-81
2022/01/28 02:12:25;;;;;;;11.82;2.70;;;;;;;;;;5112544;28;20196;-80
2022/01/28 02:14:52;;;;;;;9.43;2.58;;;;;;;;;;5098410;27;20212;-79
2022/01/28 02:17:19;;;;;;;8.30;2.25;;;;;;;;;;5109640;27;20205;-82
2022/01/28 02:19:47;;;;;;;9.88;3.05;;;;;;;;;;5119270;27;20676;-80
2022/01/28 02:22:19;;;;;;;16.23;3.38;;;;;;;;;;5115022;27;20220;-78
2022/01/28 02:24:46;;;;;;;10.38;2.58;;;;;;;;;;5110720;28;20300;-80
2022/01/28 02:27:16;;;;;;;12.05;2.47;;;;;;;;;;5111283;28;20490;-81
2022/01/28 02:29:44;;;;;;;7.90;2.95;;;;;;;;;;5112278;28;20300;-82
2022/01/28 02:32:12;;;;;;;12.88;2.92;;;;;;;;;;5111937;28;20228;-81
2022/01/28 02:34:40;;;;;;;10.02;3.00;;;;;;;;;;5103446;27;20222;-82
2022/01/28 02:37:07;;;;;;;11.05;3.45;;;;;;;;;;5119687;27;20245;-80
2022/01/28 02:39:36;;;;;;;8.45;2.22;;;;;;;;;;5116988;27;20192;-81
2022/01/28 02:42:13;;;;;;;7.32;2.53;;;;;;;;;;5111507;28;20220;-82
2022/01/28 02:44:47;;;;;;;6.78;2.67;;;;;;;;;;5112322;28;20212;-78
2022/01/28 02:47:17;;;;;;;12.23;3.10;;;;;;;;;;5112304;28;20296;-81
2022/01/28 02:49:45;;;;;;;11.65;2.40;;;;;;;;;;5110991;28;20654;-81
2022/01/28 02:52:20;;;;;;;6.97;2.30;;;;;;;;;;5111198;28;20287;-82
2022/01/28 02:54:50;;;;;;;7.82;2.63;;;;;;;;;;5112996;28;20288;-85
2022/01/28 02:57:23;;;;;;;10.02;2.92;;;;;;;;;;5117988;27;20260;-82
2022/01/28 02:59:50;;;;;;;10.43;2.58;;;;;;;;;;5119436;27;20593;-82
2022/01/28 03:02:18;;;;;;;12.45;2.58;;;;;;;;;;5118122;27;20676;-79
2022/01/28 03:05:05;;;;;;;5.55;2.60;;;;;;;;;;5112412;28;20219;-79
2022/01/28 03:07:33;;;;;;;11.82;3.13;;;;;;;;;;5106603;28;20194;-78
2022/01/28 03:10:27;;;;;;;9.30;3.13;;;;;;;;;;5092183;28;20201;-80
2022/01/28 03:13:15;;;;;;;6.32;3.03;;;;;;;;;;5090897;28;20288;-81
2022/01/28 03:15:50;;;;;;;7.32;2.53;;;;;;;;;;5092986;28;20328;-81
2022/01/28 03:18:20;;;;;;;4.55;2.53;;;;;;;;;;5093911;28;20201;-81
2022/01/28 03:20:59;;;;;;;13.45;2.53;;;;;;;;;;5120166;27;21148;-82
2022/01/28 03:23:27;;;;;;;13.57;2.80;;;;;;;;;;5119059;27;20219;-78
2022/01/28 03:25:56;;;;;;;10.25;2.95;;;;;;;;;;5108463;28;20212;-78
2022/01/28 03:28:23;;;;;;;9.27;2.40;;;;;;;;;;5110555;28;20547;-81
2022/01/28 03:30:50;;;;;;;8.35;2.17;;;;;;;;;;5112046;28;20239;-84
2022/01/28 03:33:17;;;;;;;9.95;2.25;;;;;;;;;;5111486;28;20223;-80
2022/01/28 03:35:44;;;;;;;11.27;2.28;;;;;;;;;;5103127;28;20219;-80
2022/01/28 03:38:13;;;;;;;13.38;2.35;;;;;;;;;;5093397;28;20224;-79
2022/01/28 03:40:42;;;;;;;11.55;2.22;;;;;;;;;;5114835;27;20193;-83
2022/01/28 03:43:10;;;;;;;8.60;2.85;;;;;;;;;;5119545;27;20225;-82
2022/01/28 03:45:37;;;;;;;10.35;2.30;;;;;;;;;;5101426;27;20213;-81
2022/01/28 03:48:05;;;;;;;3.53;1.95;;;;;;;;;;5090243;28;20201;-80
2022/01/28 03:50:34;;;;;;;11.13;2.83;;;;;;;;;;5091196;28;20198;-81
2022/01/28 03:53:01;;;;;;;8.52;2.45;;;;;;;;;;5096583;28;20302;-80
2022/01/28 03:55:28;;;;;;;8.05;2.10;;;;;;;;;;5105243;28;20214;-78
2022/01/28 03:57:55;;;;;;;7.93;1.90;;;;;;;;;;5114599;27;20199;-80
2022/01/28 04:00:26;;;;;;;10.43;3.00;;;;;;;;;;5119633;27;20195;-80
2022/01/28 04:03:03;;;;;;;13.25;2.50;;;;;;;;;;5130592;27;20239;-80
2022/01/28 04:13:33;;;;;;;7.38;2.45;;;;;;;;;;5091400;28;20668;-83
2022/01/28 04:16:27;;;;;;;8.70;2.63;;;;;;;;;;5115818;28;20216;-82
2022/01/28 04:18:52;;;;;;;10.00;2.25;;;;;;;;;;5116613;27;20260;-80
2022/01/28 04:21:19;;;;;;;13.57;3.30;;;;;;;;;;5108508;28;20200;-78
2022/01/28 04:23:46;;;;;;;10.52;2.65;;;;;;;;;;5092869;28;20217;-77
2022/01/28 04:26:14;;;;;;;12.07;2.78;;;;;;;;;;5093489;28;20203;-78
2022/01/28 04:28:41;;;;;;;13.13;2.65;;;;;;;;;;5109356;28;20193;-79
2022/01/28 04:31:10;;;;;;;18.40;3.90;;;;;;;;;;5102097;28;20198;-79
2022/01/28 04:33:37;;;;;;;6.40;2.63;;;;;;;;;;5111650;28;20258;-80
2022/01/28 04:36:06;;;;;;;8.75;2.50;;;;;;;;;;5117627;28;20196;-79
2022/01/28 04:38:40;;;;;;;15.68;4.18;;;;;;;;;;5112052;27;20205;-81
2022/01/28 04:41:14;;;;;;;8.20;2.20;;;;;;;;;;5111494;28;20258;-80
2022/01/28 04:43:47;;;;;;;19.88;2.38;;;;;;;;;;5109830;28;20247;-82
2022/01/28 04:46:26;;;;;;;7.28;2.85;;;;;;;;;;5107975;28;20201;-80
2022/01/28 04:48:59;;;;;;;9.10;2.25;;;;;;;;;;5097739;28;20228;-83
2022/01/28 04:51:44;;;;;;;6.55;2.67;;;;;;;;;;5119057;27;20192;-84
2022/01/28 04:54:24;;;;;;;9.90;2.60;;;;;;;;;;5116865;28;20209;-81
2022/01/28 04:57:00;;;;;;;8.65;2.55;;;;;;;;;;5111127;28;20232;-83
2022/01/28 04:59:40;;;;;;;9.30;2.72;;;;;;;;;;5115289;28;20657;-79
2022/01/28 05:05:06;;;;;;;9.00;2.20;;;;;;;;;;5092680;28;20228;-81
2022/01/28 05:07:44;;;;;;;7.78;1.95;;;;;;;;;;5114203;28;20192;-78
2022/01/28 05:13:20;;;;;;;14.70;3.00;;;;;;;;;;5118755;27;20274;-79
2022/01/28 05:16:17;;;;;;;11.98;2.97;;;;;;;;;;5122163;27;20226;-81
2022/01/28 05:24:37;;;;;;;14.57;2.50;;;;;;;;;;5114013;28;20224;-81
2022/01/28 05:27:06;;;;;;;7.53;2.90;;;;;;;;;;5100224;28;20201;-79
2022/01/28 05:29:34;;;;;;;4.30;2.10;;;;;;;;;;5094649;28;20243;-82
2022/01/28 05:32:01;;;;;;;11.52;3.28;;;;;;;;;;5095645;28;20198;-82
2022/01/28 05:34:29;;;;;;;7.72;2.13;;;;;;;;;;5106271;27;20218;-79
2022/01/28 05:36:57;;;;;;;12.48;2.70;;;;;;;;;;5116111;27;20538;-83
2022/01/28 05:39:24;;;;;;;8.38;2.10;;;;;;;;;;5119201;27;20660;-82
2022/01/28 05:41:51;;;;;;;13.13;2.45;;;;;;;;;;5134542;27;20566;-80
2022/01/28 05:44:20;;;;;;;5.68;2.40;;;;;;;;;;5124667;27;20208;-79
2022/01/28 05:46:47;;;;;;;4.18;1.92;;;;;;;;;;5105830;28;20200;-80
2022/01/28 05:49:15;;;;;;;8.82;2.20;;;;;;;;;;5112435;28;20204;-79
2022/01/28 05:51:44;;;;;;;16.33;2.30;;;;;;;;;;5108090;27;20206;-79
2022/01/28 05:54:11;;;;;;;16.92;3.00;;;;;;;;;;5118501;27;20222;-80
2022/01/28 05:56:39;;;;;;;4.03;2.15;;;;;;;;;;5111943;27;20188;-80
2022/01/28 05:59:06;;;;;;;7.72;2.47;;;;;;;;;;5109293;28;20200;-80
2022/01/28 06:01:33;;;;;;;2.72;1.90;;;;;;;;;;5111757;28;20200;-80
2022/01/28 06:04:01;;;;;;;11.65;2.58;;;;;;;;;;5112064;28;20232;-79
2022/01/28 06:06:28;;;;;;;5.82;2.47;;;;;;;;;;5112437;28;20197;-80
2022/01/28 06:08:57;;;;;;;12.25;2.75;;;;;;;;;;5105329;28;20196;-80
2022/01/28 06:11:24;;;;;;;14.30;3.28;;;;;;;;;;5119409;27;20203;-79
2022/01/28 06:13:52;;;;;;;17.00;2.75;;;;;;;;;;5121327;27;20206;-81
2022/01/28 06:16:20;;;;;;;11.23;2.80;;;;;;;;;;5131616;27;20203;-82
2022/01/28 06:18:47;;;;;;;6.10;2.30;;;;;;;;;;5123404;27;20566;-80
2022/01/28 06:21:14;;;;;;;5.55;2.47;;;;;;;;;;5095858;28;20597;-81
2022/01/28 06:23:41;;;;;;;15.02;3.80;;;;;;;;;;5097575;28;20212;-80
2022/01/28 06:26:10;;;;;;;6.40;2.17;;;;;;;;;;5109975;28;20548;-80
2022/01/28 06:28:37;;;;;;;14.55;3.28;;;;;;;;;;5118462;27;21085;-84
2022/01/28 06:31:04;;;;;;;16.25;3.83;;;;;;;;;;5118527;27;20188;-80
2022/01/28 06:33:31;;;;;;;5.72;2.75;;;;;;;;;;5128420;27;20228;-81
2022/01/28 06:35:58;;;;;;;9.30;2.97;;;;;;;;;;5132806;27;20216;-78
2022/01/28 06:38:26;;;;;;;8.48;2.97;;;;;;;;;;5133201;27;20204;-81
2022/01/28 06:40:53;;;;;;;11.80;3.42;;;;;;;;;;5123771;27;20197;-83
2022/01/28 06:43:21;;;;;;;12.25;3.17;;;;;;;;;;5112371;28;20712;-79
2022/01/28 06:45:49;;;;;;;7.03;2.83;;;;;;;;;;5097621;27;20221;-80
2022/01/28 06:48:16;;;;;;;13.95;3.55;;;;;;;;;;5121880;27;20284;-80
2022/01/28 06:50:45;;;;;;;5.90;2.67;;;;;;;;;;5113732;27;20752;-78
2022/01/28 06:53:13;;;;;;;11.63;3.00;;;;;;;;;;5108929;28;20193;-80
2022/01/28 06:55:40;;;;;;;7.70;3.40;;;;;;;;;;5112130;28;20243;-81
2022/01/28 06:58:08;;;;;;;9.38;3.28;;;;;;;;;;5110508;28;20207;-80
2022/01/28 07:00:37;;;;;;;9.85;3.80;;;;;;;;;;5111169;28;20193;-81
2022/01/28 07:03:04;;;;;;;8.27;3.60;;;;;;;;;;5100409;28;20225;-82
2022/01/28 07:05:32;;;;;;;16.10;3.72;;;;;;;;;;5119888;27;20213;-81
2022/01/28 07:07:59;;;;;;;9.05;3.92;;;;;;;;;;5112261;27;20184;-76
2022/01/28 07:10:26;;;;;;;9.70;4.95;;;;;;;;;;5098054;28;20204;-78
2022/01/28 07:12:54;;;;;;;13.80;4.05;;;;;;;;;;5091778;28;20200;-80
2022/01/28 07:15:24;;;;;;;11.75;4.30;;;;;;;;;;5097675;28;20246;-79
2022/01/28 07:17:53;;;;;;;12.30;3.97;;;;;;;;;;5110553;28;20231;-80
2022/01/28 07:20:20;;;;;;;10.88;3.78;;;;;;;;;;5111375;28;20197;-76
2022/01/28 07:22:47;;;;;;;15.23;4.10;;;;;;;;;;5113250;28;20801;-80
2022/01/28 07:25:14;;;;;;;11.07;4.75;;;;;;;;;;5105331;28;20701;-78
2022/01/28 07:27:42;;;;;;;15.60;3.83;;;;;;;;;;5117039;27;20193;-75
2022/01/28 07:30:10;;;;;;;9.32;3.97;;;;;;;;;;5117241;27;21067;-80
2022/01/28 07:32:37;;;;;;;9.93;3.55;;;;;;;;;;5093902;28;20276;-78
2022/01/28 07:35:06;;;;;;;8.63;4.00;;;;;;;;;;5090121;28;20790;-82
2022/01/28 07:37:33;;;;;;;7.10;3.63;;;;;;;;;;5091877;28;20205;-77
2022/01/28 07:40:02;;;;;;;11.98;3.60;;;;;;;;;;5102187;28;20189;-82
2022/01/28 07:42:33;;;;;;;16.15;3.90;;;;;;;;;;5104090;28;20218;-77
2022/01/28 07:45:00;;;;;;;10.48;4.15;;;;;;;;;;5107000;28;20317;-78
2022/01/28 07:47:27;;;;;;;12.88;3.70;;;;;;;;;;5106033;28;20201;-80
2022/01/28 07:49:55;;;;;;;9.68;4.43;;;;;;;;;;5115921;27;20633;-81
2022/01/28 07:52:23;;;;;;;15.88;4.03;;;;;;;;;;5116518;28;20192;-80
2022/01/28 07:54:50;;;;;;;9.95;4.10;;;;;;;;;;5099170;28;20213;-79
2022/01/28 07:57:17;;;;;;;12.45;4.13;;;;;;;;;;5090641;28;20200;-78
2022/01/28 07:59:45;;;;;;;11.23;4.45;;;;;;;;;;5098444;28;20262;-78
2022/01/28 08:02:12;;;;;;;13.02;4.15;;;;;;;;;;5091191;28;20276;-82
2022/01/28 08:04:39;;;;;;;12.73;4.07;;;;;;;;;;5089423;28;20232;-81
2022/01/28 08:07:06;;;;;;;11.10;4.60;;;;;;;;;;5114551;28;20208;-78
2022/01/28 08:09:35;;;;;;;18.15;5.30;;;;;;;;;;5114659;28;20188;-79
2022/01/28 08:12:02;;;;;;;12.85;5.57;;;;;;;;;;5089222;28;20950;-80
2022/01/28 08:14:30;;;;;;;9.60;4.32;;;;;;;;;;5087518;28;20216;-78
2022/01/28 08:16:58;;;;;;;14.18;3.58;;;;;;;;;;5083668;28;20702;-78
2022/01/28 08:19:25;;;;;;;14.88;5.32;;;;;;;;;;5095143;28;20216;-78
2022/01/28 08:21:52;;;;;;;12.65;4.93;;;;;;;;;;5098554;28;20582;-77
2022/01/28 08:24:19;;;;;;;13.20;3.53;;;;;;;;;;5110419;27;20229;-80
2022/01/28 08:26:48;;;;;;;10.27;4.57;;;;;;;;;;5106876;27;20192;-79
2022/01/28 08:29:16;;;;;;;14.23;5.10;;;;;;;;;;5091301;28;20208;-81
2022/01/28 08:31:43;;;;;;;10.30;5.10;;;;;;;;;;5092098;28;20341;-81
2022/01/28 08:34:10;;;;;;;10.35;4.63;;;;;;;;;;5102488;28;20225;-78
2022/01/28 08:36:37;;;;;;;17.10;6.07;;;;;;;;;;5105540;28;20193;-79
2022/01/28 08:39:06;;;;;;;13.95;5.57;;;;;;;;;;5107047;28;20288;-80
2022/01/28 08:41:35;;;;;;;9.10;4.65;;;;;;;;;;5113366;27;20312;-79
2022/01/28 08:44:04;;;;;;;8.50;4.70;;;;;;;;;;5119013;27;20707;-77
2022/01/28 08:46:31;;;;;;;9.00;4.15;;;;;;;;;;5107678;27;20665;-75
2022/01/28 08:48:58;;;;;;;10.38;4.32;;;;;;;;;;5102062;28;20190;-77
2022/01/28 08:51:25;;;;;;;11.10;3.50;;;;;;;;;;5111822;28;20546;-77
2022/01/28 08:53:54;;;;;;;9.38;3.75;;;;;;;;;;5109348;27;20407;-79
2022/01/28 08:56:21;;;;;;;11.55;4.43;;;;;;;;;;5098159;28;20675;-75
2022/01/28 08:58:48;;;;;;;13.45;4.30;;;;;;;;;;5113707;27;20198;-74
2022/01/28 09:01:17;;;;;;;13.65;3.65;;;;;;;;;;5120556;27;20196;-77
2022/01/28 09:03:44;;;;;;;10.15;3.92;;;;;;;;;;5131178;27;20208;-78
2022/01/28 09:06:11;;;;;;;9.73;3.60;;;;;;;;;;5115746;27;20192;-77
2022/01/28 09:08:43;;;;;;;10.63;3.90;;;;;;;;;;5107201;28;20666;-77
2022/01/28 09:13:52;;;;;;;8.63;4.18;;;;;;;;;;5111577;27;20200;-79
2022/01/28 09:16:21;;;;;;;15.85;4.70;;;;;;;;;;5117458;27;20269;-77
2022/01/28 09:18:49;;;;;;;9.88;4.40;;;;;;;;;;5119590;27;20192;-78
2022/01/28 09:21:16;;;;;;;15.10;4.20;;;;;;;;;;5110687;27;20195;-77
2022/01/28 09:23:43;;;;;;;17.42;4.15;;;;;;;;;;5100467;28;20680;-77
2022/01/28 09:26:10;;;;;;;8.95;4.38;;;;;;;;;;5097882;28;20193;-77
2022/01/28 09:28:37;;;;;;;14.98;5.00;;;;;;;;;;5110263;28;20283;-76
2022/01/28 09:31:05;;;;;;;11.32;3.80;;;;;;;;;;5109029;28;20563;-74
2022/01/28 09:33:33;;;;;;;9.82;4.40;;;;;;;;;;5115420;27;21238;-77
2022/01/28 09:36:00;;;;;;;12.25;4.55;;;;;;;;;;5118198;27;20212;-76
2022/01/28 09:38:27;;;;;;;7.68;4.65;;;;;;;;;;5112286;28;20193;-76
2022/01/28 09:40:56;;;;;;;18.48;4.85;;;;;;;;;;5093672;28;20281;-78
2022/01/28 09:43:25;;;;;;;10.13;5.13;;;;;;;;;;5093667;28;20195;-77
2022/01/28 09:45:52;;;;;;;13.25;5.53;;;;;;;;;;5105906;28;20724;-78
2022/01/28 09:48:19;;;;;;;14.23;6.32;;;;;;;;;;5092761;28;20198;-78
2022/01/28 09:50:48;;;;;;;15.05;5.80;;;;;;;;;;5114892;27;20195;-75
2022/01/28 09:53:17;;;;;;;12.88;5.07;;;;;;;;;;5116315;27;20204;-79
2022/01/28 09:55:45;;;;;;;13.23;5.47;;;;;;;;;;5098398;27;20766;-79
2022/01/28 09:58:13;;;;;;;19.05;6.13;;;;;;;;;;5091853;28;20190;-78
2022/01/28 10:00:40;;;;;;;13.52;5.72;;;;;;;;;;5092280;28;20194;-77
2022/01/28 10:03:08;;;;;;;10.13;5.25;;;;;;;;;;5103239;28;20192;-82
2022/01/28 10:05:36;;;;;;;17.98;5.95;;;;;;;;;;5092317;28;20471;-82
2022/01/28 10:08:09;;;;;;;20.42;6.82;;;;;;;;;;5111364;28;20204;-80
2022/01/28 10:10:51;;;;;;;13.68;6.38;;;;;;;;;;5100593;28;20193;-78
2022/01/28 10:13:22;;;;;;;17.13;5.30;;;;;;;;;;5112189;27;20671;-81
2022/01/28 10:15:54;;;;;;;10.20;4.85;;;;;;;;;;5115566;27;20243;-79
2022/01/28 10:18:21;;;;;;;13.07;4.82;;;;;;;;;;5102269;27;20201;-78
2022/01/28 10:20:48;;;;;;;13.70;5.68;;;;;;;;;;5111430;28;20203;-77
2022/01/28 10:23:18;;;;;;;13.23;6.30;;;;;;;;;;5101557;28;20199;-78
2022/01/28 10:25:55;;;;;;;14.73;5.93;;;;;;;;;;5111035;28;20220;-79
2022/01/28 10:28:23;;;;;;;14.57;6.43;;;;;;;;;;5093323;28;20200;-83
2022/01/28 10:30:50;;;;;;;11.63;4.70;;;;;;;;;;5108423;28;20193;-78
2022/01/28 10:33:19;;;;;;;16.98;5.70;;;;;;;;;;5102760;28;20229;-81
2022/01/28 10:35:50;;;;;;;12.73;4.70;;;;;;;;;;5108649;27;20226;-82
2022/01/28 10:38:32;;;;;;;12.82;5.30;;;;;;;;;;5117980;27;20545;-78
2022/01/28 10:41:09;;;;;;;12.75;4.72;;;;;;;;;;5108893;27;20673;-82
2022/01/28 10:43:42;;;;;;;17.17;6.00;;;;;;;;;;5110588;28;20612;-82
2022/01/28 10:46:10;;;;;;;18.13;6.10;;;;;;;;;;5111907;28;20203;-77
2022/01/28 10:48:49;;;;;;;13.02;5.22;;;;;;;;;;5107242;28;20577;-81
2022/01/28 10:51:17;;;;;;;10.15;4.80;;;;;;;;;;5102210;28;20201;-87
2022/01/28 10:53:44;;;;;;;28.90;7.22;;;;;;;;;;5117469;27;20188;-84
2022/01/28 10:56:13;;;;;;;29.38;7.70;;;;;;;;;;5116038;27;20196;-80
2022/01/28 10:58:40;;;;;;;25.00;7.15;;;;;;;;;;5086938;28;20196;-80
2022/01/28 11:01:13;;;;;;;12.55;4.75;;;;;;;;;;5103355;27;20184;-85
2022/01/28 11:03:40;;;;;;;15.40;5.40;;;;;;;;;;5089321;28;20193;-82
2022/01/28 11:06:08;;;;;;;18.05;5.50;;;;;;;;;;5100067;28;20190;-85
2022/01/28 11:08:35;;;;;;;18.42;7.43;;;;;;;;;;5092598;28;20589;-78
2022/01/28 11:11:03;;;;;;;15.25;6.38;;;;;;;;;;5114022;27;20184;-78
2022/01/28 11:13:31;;;;;;;13.85;6.22;;;;;;;;;;5113369;27;20562;-80
2022/01/28 11:15:58;;;;;;;15.45;5.78;;;;;;;;;;5088116;28;20224;-78
2022/01/28 11:18:27;;;;;;;13.75;4.90;;;;;;;;;;5094428;27;20201;-79
2022/01/28 11:20:56;;;;;;;9.67;4.30;;;;;;;;;;5113970;27;20199;-78
2022/01/28 11:23:26;;;;;;;16.10;5.87;;;;;;;;;;5107865;28;20452;-79
2022/01/28 11:25:58;;;;;;;12.25;4.57;;;;;;;;;;5109836;27;20496;-82
2022/01/28 11:28:40;;;;;;;12.23;4.50;;;;;;;;;;5112425;27;20192;-78
2022/01/28 11:31:07;;;;;;;13.15;5.28;;;;;;;;;;5104745;27;20490;-79
2022/01/28 11:33:43;;;;;;;11.70;4.60;;;;;;;;;;5126549;27;20242;-81
2022/01/28 11:36:10;;;;;;;10.23;4.00;;;;;;;;;;5123887;27;20558;-78
2022/01/28 11:38:41;;;;;;;8.93;3.50;;;;;;;;;;5104644;28;20438;-81
2022/01/28 11:41:09;;;;;;;7.60;3.97;;;;;;;;;;5090276;28;20799;-84
2022/01/28 11:43:45;;;;;;;15.03;4.93;;;;;;;;;;5104726;28;20462;-81
2022/01/28 11:46:18;;;;;;;12.43;4.20;;;;;;;;;;5119050;28;20430;-81
2022/01/28 11:49:02;;;;;;;16.77;4.70;;;;;;;;;;5113416;28;20442;-81
2022/01/28 11:51:37;;;;;;;6.97;3.30;;;;;;;;;;5091221;28;20443;-78
2022/01/28 11:54:05;;;;;;;7.70;3.20;;;;;;;;;;5104450;28;20570;-81
2022/01/28 11:56:32;;;;;;;12.50;3.00;;;;;;;;;;5096496;28;20473;-82
2022/01/28 11:59:04;;;;;;;9.00;3.43;;;;;;;;;;5095594;28;20445;-81
2022/01/28 12:02:01;;;;;;;16.47;5.07;;;;;;;;;;5110308;27;20471;-79
2022/01/28 12:04:43;;;;;;;9.30;3.60;;;;;;;;;;5114503;28;20462;-84
2022/01/28 12:07:14;;;;;;;13.23;4.63;;;;;;;;;;5098934;28;20797;-82
2022/01/28 12:09:42;;;;;;;12.60;5.03;;;;;;;;;;5115838;28;20446;-78
2022/01/28 12:12:11;;;;;;;17.67;6.03;;;;;;;;;;5105725;28;20435;-82
2022/01/28 12:14:56;;;;;;;14.00;4.80;;;;;;;;;;5111386;27;20474;-80
2022/01/28 12:17:38;;;;;;;20.97;4.87;;;;;;;;;;5107638;27;20451;-80
2022/01/28 12:20:23;;;;;;;14.93;5.43;;;;;;;;;;5105029;27;20437;-81
2022/01/28 12:23:05;;;;;;;11.43;4.63;;;;;;;;;;5108096;27;20806;-83
2022/01/28 12:25:47;;;;;;;10.20;4.93;;;;;;;;;;5118906;27;20479;-84
2022/01/28 12:28:15;;;;;;;12.10;3.87;;;;;;;;;;5108194;27;20451;-81
2022/01/28 12:30:44;;;;;;;12.83;3.77;;;;;;;;;;5099132;28;20445;-78
2022/01/28 12:33:11;;;;;;;12.30;4.13;;;;;;;;;;5101991;28;20497;-82
2022/01/28 12:35:40;;;;;;;12.95;3.22;;;;;;;;;;5099646;28;20839;-82
2022/01/28 12:38:07;;;;;;;8.10;2.50;;;;;;;;;;5093414;28;20204;-81
2022/01/28 12:40:36;;;;;;;16.08;4.20;;;;;;;;;;5112814;27;20830;-81
2022/01/28 12:43:04;;;;;;;14.45;4.65;;;;;;;;;;5122379;27;20192;-79
2022/01/28 12:45:31;;;;;;;10.13;2.85;;;;;;;;;;5121967;27;20743;-78
2022/01/28 12:47:59;;;;;;;6.43;2.60;;;;;;;;;;5113361;28;20212;-78
2022/01/28 12:50:28;;;;;;;9.32;2.60;;;;;;;;;;5098800;28;20920;-82
2022/01/28 12:52:56;;;;;;;10.63;2.70;;;;;;;;;;5093643;28;20197;-78
2022/01/28 12:55:33;;;;;;;4.43;1.90;;;;;;;;;;5103989;28;20260;-80
2022/01/28 12:58:00;;;;;;;4.75;2.28;;;;;;;;;;5099145;28;20204;-80
2022/01/28 13:00:27;;;;;;;5.13;2.45;;;;;;;;;;5107251;28;20676;-80
2022/01/28 13:02:56;;;;;;;5.83;2.40;;;;;;;;;;5110193;27;20196;-81
2022/01/28 13:05:33;;;;;;;7.78;2.25;;;;;;;;;;5119708;27;21001;-81
2022/01/28 13:10:42;;;;;;;8.40;2.60;;;;;;;;;;5097549;28;20189;-79
2022/01/28 13:13:11;;;;;;;8.45;2.67;;;;;;;;;;5107179;28;20220;-83
2022/01/28 13:15:39;;;;;;;5.80;2.35;;;;;;;;;;5098192;28;20209;-79
2022/01/28 13:18:07;;;;;;;7.30;2.80;;;;;;;;;;5096128;28;20280;-78
2022/01/28 13:20:35;;;;;;;8.15;2.25;;;;;;;;;;5103704;28;20457;-77
2022/01/28 13:23:04;;;;;;;8.07;2.50;;;;;;;;;;5105769;28;20195;-76
2022/01/28 13:25:31;;;;;;;5.93;2.30;;;;;;;;;;5110343;28;20614;-78
2022/01/28 13:28:01;;;;;;;12.77;2.53;;;;;;;;;;5118309;27;20442;-78
2022/01/28 13:30:33;;;;;;;7.83;2.43;;;;;;;;;;5116502;27;20223;-78
2022/01/28 13:33:04;;;;;;;8.80;2.23;;;;;;;;;;5093264;28;20474;-77
2022/01/28 13:35:32;;;;;;;3.67;2.10;;;;;;;;;;5100902;28;21041;-78
2022/01/28 13:38:01;;;;;;;12.67;2.23;;;;;;;;;;5106022;28;20948;-80
2022/01/28 13:40:35;;;;;;;7.70;2.87;;;;;;;;;;5103898;28;20435;-78
2022/01/28 13:43:03;;;;;;;6.80;2.47;;;;;;;;;;5098090;28;20869;-81
2022/01/28 13:45:32;;;;;;;7.50;2.23;;;;;;;;;;5097770;28;20491;-80
2022/01/28 13:48:01;;;;;;;10.20;2.70;;;;;;;;;;5117539;27;20871;-80
2022/01/28 13:50:30;;;;;;;8.03;2.20;;;;;;;;;;5118673;27;20536;-81
2022/01/28 13:53:19;;;;;;;6.37;2.30;;;;;;;;;;5092662;28;20444;-82
2022/01/28 13:55:51;;;;;;;12.60;2.37;;;;;;;;;;5091681;28;20459;-81
2022/01/28 13:58:19;;;;;;;8.40;2.33;;;;;;;;;;5090668;28;20951;-82
2022/01/28 14:00:47;;;;;;;8.07;2.13;;;;;;;;;;5104097;28;20453;-80
2022/01/28 14:03:16;;;;;;;11.80;3.03;;;;;;;;;;5101490;28;20448;-81
2022/01/28 14:05:51;;;;;;;10.27;2.60;;;;;;;;;;5094344;28;20984;-77
2022/01/28 14:08:33;;;;;;;13.30;2.80;;;;;;;;;;5096208;27;20435;-80
2022/01/28 14:14:15;;;;;;;6.40;2.70;;;;;;;;;;5105761;27;20590;-78
2022/01/28 14:16:45;;;;;;;6.90;2.87;;;;;;;;;;5088472;28;20440;-79
2022/01/28 14:19:13;;;;;;;8.70;3.70;;;;;;;;;;5087553;28;20445;-79
2022/01/28 14:21:40;;;;;;;11.83;3.77;;;;;;;;;;5088929;28;20435;-79
2022/01/28 14:24:18;;;;;;;14.17;3.50;;;;;;;;;;5086934;28;20555;-77
2022/01/28 14:26:55;;;;;;;5.63;2.90;;;;;;;;;;5075824;28;20545;-78
2022/01/28 14:29:46;;;;;;;9.83;3.17;;;;;;;;;;5090763;28;20855;-79
2022/01/28 14:32:15;;;;;;;6.53;3.23;;;;;;;;;;5083545;28;20560;-79
2022/01/28 14:34:43;;;;;;;7.80;3.40;;;;;;;;;;5082425;28;20942;-80
2022/01/28 14:37:11;;;;;;;7.63;3.27;;;;;;;;;;5087487;28;20436;-79
2022/01/28 14:39:40;;;;;;;17.30;3.87;;;;;;;;;;5087986;28;20987;-79
2022/01/28 14:42:08;;;;;;;9.10;4.40;;;;;;;;;;5087071;28;20435;-79
2022/01/28 14:44:36;;;;;;;10.43;4.10;;;;;;;;;;5087380;28;20466;-78
2022/01/28 14:47:05;;;;;;;12.73;3.33;;;;;;;;;;5088230;28;20455;-76
2022/01/28 14:49:34;;;;;;;12.17;3.80;;;;;;;;;;5082457;28;21176;-78
2022/01/28 14:52:06;;;;;;;8.32;3.78;;;;;;;;;;5081549;28;20494;-77
2022/01/28 14:54:33;;;;;;;7.00;4.50;;;;;;;;;;5081830;28;20201;-77
2022/01/28 14:57:01;;;;;;;10.30;4.90;;;;;;;;;;5087622;28;20467;-80
2022/01/28 14:59:30;;;;;;;11.17;5.23;;;;;;;;;;5086750;28;20439;-79
2022/01/28 15:01:57;;;;;;;17.45;7.50;;;;;;;;;;5086179;28;20459;-78
2022/01/28 15:04:24;;;;;;;16.73;7.18;;;;;;;;;;5088125;28;20214;-80
2022/01/28 15:06:53;;;;;;;21.23;8.83;;;;;;;;;;5087246;28;20202;-80
2022/01/28 15:09:21;;;;;;;17.63;9.15;;;;;;;;;;5081987;28;20442;-78
2022/01/28 15:11:48;;;;;;;15.40;9.15;;;;;;;;;;5082450;28;20190;-80
2022/01/28 15:14:16;;;;;;;19.87;8.53;;;;;;;;;;5087539;28;20218;-78
2022/01/28 15:16:43;;;;;;;11.30;6.70;;;;;;;;;;5085961;28;20436;-80
2022/01/28 15:19:12;;;;;;;15.23;7.63;;;;;;;;;;5086015;28;20459;-79
2022/01/28 15:21:39;;;;;;;15.43;5.00;;;;;;;;;;5086620;28;20189;-79
2022/01/28 15:24:08;;;;;;;6.27;4.57;;;;;;;;;;5074130;28;20225;-80
2022/01/28 15:26:35;;;;;;;10.85;5.70;;;;;;;;;;5070998;28;20440;-80
2022/01/28 15:29:05;;;;;;;11.65;6.40;;;;;;;;;;5068006;28;20204;-80
2022/01/28 15:34:23;;;;;;;14.50;6.97;;;;;;;;;;5067120;28;20232;-78
2022/01/28 15:36:50;;;;;;;14.23;7.10;;;;;;;;;;5071959;28;20770;-78
2022/01/28 15:39:19;;;;;;;12.88;6.20;;;;;;;;;;5074118;28;20292;-79
2022/01/28 15:41:47;;;;;;;9.07;5.82;;;;;;;;;;5072519;28;20552;-79
2022/01/28 15:44:14;;;;;;;19.20;7.07;;;;;;;;;;5069418;28;20214;-78
2022/01/28 15:46:42;;;;;;;13.52;5.63;;;;;;;;;;5070512;28;20193;-78